Tarsus, Turkey
Current Conditions -  °F | °C
As of 4:20 AM on Wednesday 28 Jan 2015 (Local Time) from LTAF Reporting Station
Haze Haze  
Wind Chill: 44°   Ceiling: Unl
Heat Index: 46°   Visibility: 2.5mi
Dew Point: 37°   Wind: 5mph
Humidity: 71%   Direction: 20°NNE
Pressure: 29.85"   Gusts: NA
Location:  36.92°N, 34.9°E
Report Text: LTAF 280120Z 02004KT 4000 BR SCT035 08/03 Q1011 NOSIG
Loading
Personal Weather Stations






























Interactive Weather Map New forecast layout! Learn more

10-Day Weather Forecast

Advertisements
Track Severe Weather on mobile